METAR AND TAF INFORMATION
METAR FOR LEZG
ADDS - METARS form results

(0718 UTC 03 February 2023)
Data provider http://aviationweather.gov/metar/data/
 
METAR text: LEZG 030700Z 08001KT CAVOK M01/M02 Q1032
Conditions at: LEZG (ZARAGOZA (MIL/CI, ES) observed 0700 UTC 03 February 2023
Temperature: -1.0°C (30°F)
Dewpoint: -2.0°C (28°F) [RH = 93%]
Pressure (altimeter): 30.47 inches Hg (1032.0 mb)
Winds: from the E (80 degrees) at 1 MPH (1 knots; 0.5 m/s)
Visibility: 6 or more miles (10+ km)
Ceiling: ceiling and visibility are OK
Clouds: unknown
Weather: no significant weather observed at this time

METAR text: LEZG 030630Z 00000KT CAVOK M00/M03 Q1032
Conditions at: LEZG (ZARAGOZA (MIL/CI, ES) observed 0630 UTC 03 February 2023
Temperature: 0.0°C (32°F)
Dewpoint: -3.0°C (27°F) [RH = 80%]
Pressure (altimeter): 30.47 inches Hg (1032.0 mb)
Winds: calm
Visibility: 6 or more miles (10+ km)
Ceiling: ceiling and visibility are OK
Clouds: unknown
Weather: no significant weather observed at this time

Forecast for: LEZG (ZARAGOZA (MIL/CI, ES)
Text: TAF LEZG 030500Z 0306/0406 26010KT 9999 FEW050 TX15/0313Z TN01/0307Z
Forecast period: 0600 UTC 03 February 2023 to 0600 UTC 04 February 2023
Forecast type: FROM: standard forecast or significant change
Winds: from the W (260 degrees) at 12 MPH (10 knots; 5.1 m/s)
Visibility: 6 or more miles (10+ km)
Ceiling: at least 12,000 feet AGL
Clouds: few clouds at 5000 feet AGL
Weather: no significant weather forecast for this period

 AIRPORT MAP

 RUNWAY INFORMATION
Runway 12R Runway length 12198 ft Runway width 148 ft
Runway elevation 834 ft Runway displaced threshold 0 ft Runway heading 120
Runway 30L Runway length 12198 ft Runway width 148 ft
Runway elevation 863 ft Runway displaced threshold 0 ft Runway heading 300
Runway 12L Runway length 9843 ft Runway width 148 ft
Runway elevation 823 ft Runway displaced threshold 0 ft Runway heading 120
Runway 30R Runway length 9843 ft Runway width 148 ft
Runway elevation 834 ft Runway displaced threshold 0 ft Runway heading 300

 AIRPORT FREQUENCIES
Type APP Name APP Frequency 119.3 MHZ
Type GND Name GND Frequency 118.1 MHZ
Type TWR Name TWR Frequency 118.1 MHZ

 AIRPORT NEAR NAVIGATION AIDS
Type VOR-DME Name Zaragoza Frequency 113000 KHZ
Type NDB Name Zaragoza Frequency 389 KHZ
Type TACAN Name Zaragoza Frequency 133700 KHZ
Type NDB Name Zaragoza Frequency 348 KHZ